Plymouth, Iowa
Current Conditions -  °F | °C
As of 7:53 AM on Thursday 30 Oct 2014 (Local Time) from KMCW Reporting Station
Overcast Overcast  
Wind Chill: 37°   Ceiling: 9000
Heat Index: 37°   Visibility: 8mi
Dew Point: 35°   Wind: 3mph
Humidity: 93%   Direction: 70°ENE
Pressure: 30.04"   Gusts: NA
Location:  43.25°N, 93.12°W
Report Text: KMCW 301253Z AUTO 07003KT 8SM OVC090 03/02 A3004 RMK AO2 SLP181 T00280017
Loading
Personal Weather Stations






























Interactive Weather Map
Tropical Storm Tracking
New forecast layout! Learn more

10-Day Weather Forecast

Advertisements
Track Severe Weather on mobile